Time;durP1;ratioP1;P1;durP2;ratioP2;P2;SDS_P1;SDS_P2;PMS_P1;PMS_P2;Temp;Humidity;BMP_temperature;BMP_pressure;BME280_temperature;BME280_humidity;BME280_pressure;Samples;Min_cycle;Max_cycle;Signal;HPM_P1;HPM_P2
2022/10/05 00:01:30;;;;;;;8.10;6.75;;;;;;;11.12;80.60;98835.84;7389288;19;20019;-72
2022/10/05 00:04:20;;;;;;;11.15;7.47;;;;;;;11.14;80.47;98839.19;7384828;19;21757;-71
2022/10/05 00:06:55;;;;;;;9.25;6.78;;;;;;;11.07;80.56;98841.59;7390018;19;20018;-72
2022/10/05 00:09:22;;;;;;;12.90;6.65;;;;;;;11.07;80.55;98844.22;7383367;19;20014;-72
2022/10/05 00:11:50;;;;;;;9.10;6.57;;;;;;;11.13;80.57;98840.16;7381197;19;20018;-73
2022/10/05 00:14:20;;;;;;;9.63;7.32;;;;;;;11.16;80.57;98842.50;7387096;19;20379;-70
2022/10/05 00:16:47;;;;;;;15.18;8.70;;;;;;;11.06;80.55;98839.06;7385984;19;20101;-72
2022/10/05 00:19:32;;;;;;;9.45;7.32;;;;;;;11.10;80.46;98845.75;7385524;19;20572;-72
2022/10/05 00:22:13;;;;;;;9.07;5.95;;;;;;;11.13;80.12;98842.81;7388721;19;20014;-72
2022/10/05 00:24:40;;;;;;;11.73;6.68;;;;;;;11.17;80.32;98846.84;7383089;19;20063;-72
2022/10/05 00:27:15;;;;;;;8.60;6.63;;;;;;;11.18;80.17;98840.53;7382397;19;20007;-71
2022/10/05 00:29:42;;;;;;;7.38;5.95;;;;;;;11.20;80.33;98838.59;7381549;19;20018;-73
2022/10/05 00:32:09;;;;;;;10.93;6.80;;;;;;;11.24;80.62;98834.66;7387693;19;20445;-72
2022/10/05 00:34:36;;;;;;;11.25;5.53;;;;;;;11.32;80.33;98833.91;7382947;19;21742;-72
2022/10/05 00:37:04;;;;;;;9.82;6.40;;;;;;;11.20;80.64;98825.34;7385764;19;20039;-71
2022/10/05 00:39:32;;;;;;;8.52;6.53;;;;;;;11.27;80.85;98823.78;7382834;19;20090;-71
2022/10/05 00:42:09;;;;;;;9.65;7.30;;;;;;;11.39;80.42;98822.56;7381913;19;21176;-72
2022/10/05 00:44:55;;;;;;;12.57;6.70;;;;;;;11.40;80.30;98828.69;7377490;19;20018;-72
2022/10/05 00:47:54;;;;;;;8.43;6.25;;;;;;;11.37;80.28;98831.63;7383836;19;20014;-73
2022/10/05 00:50:48;;;;;;;9.80;6.90;;;;;;;11.43;80.10;98821.28;7382573;19;20074;-71
2022/10/05 00:53:35;;;;;;;;;;;;;;;11.34;80.30;98822.19;7386059;19;20018;-73
2022/10/05 00:56:34;;;;;;;8.98;6.20;;;;;;;11.36;80.15;98822.88;7381912;19;19918;-72
2022/10/05 00:59:19;;;;;;;9.70;6.68;;;;;;;11.32;80.03;98820.66;7383003;19;20043;-70
2022/10/05 01:01:52;;;;;;;9.82;6.03;;;;;;;11.35;79.89;98818.56;7379655;19;20077;-70
2022/10/05 01:04:33;;;;;;;10.05;6.18;;;;;;;11.30;79.63;98823.47;7382917;19;20361;-72
2022/10/05 01:07:20;;;;;;;8.05;6.78;;;;;;;11.11;79.52;98815.63;7382334;19;20050;-73
2022/10/05 01:09:55;;;;;;;7.90;6.38;;;;;;;10.97;79.85;98823.09;7381058;19;20022;-71
2022/10/05 01:12:25;;;;;;;7.32;6.38;;;;;;;10.91;80.07;98825.50;7384463;19;20621;-72
2022/10/05 01:15:19;;;;;;;7.90;5.88;;;;;;;10.91;79.84;98828.16;7385732;19;20018;-70
2022/10/05 01:17:59;;;;;;;8.10;5.97;;;;;;;10.90;80.34;98823.81;7379123;19;20719;-69
2022/10/05 01:20:29;;;;;;;10.35;6.10;;;;;;;10.92;80.28;98828.00;7383880;19;20011;-72
2022/10/05 01:23:22;;;;;;;11.07;6.18;;;;;;;10.94;80.35;98825.22;7384487;19;20014;-72
2022/10/05 01:26:26;;;;;;;7.78;5.68;;;;;;;10.87;80.54;98817.00;7395606;19;20038;-71
2022/10/05 01:29:02;;;;;;;9.30;6.60;;;;;;;10.77;80.69;98805.66;7392346;19;20388;-73
2022/10/05 01:32:13;;;;;;;8.23;6.18;;;;;;;10.81;80.65;98814.13;7395620;19;20018;-72
2022/10/05 01:34:43;;;;;;;11.68;5.78;;;;;;;10.87;80.22;98813.53;7387850;19;20006;-72
2022/10/05 01:37:25;;;;;;;9.65;7.40;;;;;;;10.90;80.23;98816.75;7391797;19;20014;-72
2022/10/05 01:40:01;;;;;;;8.68;6.50;;;;;;;10.80;80.30;98815.94;7389434;19;20384;-71
2022/10/05 01:42:35;;;;;;;9.75;6.35;;;;;;;10.83;80.14;98813.00;7394121;19;20014;-72
2022/10/05 01:45:40;;;;;;;11.80;6.47;;;;;;;10.76;80.39;98817.19;7387529;19;20014;-72
2022/10/05 01:48:10;;;;;;;7.25;6.25;;;;;;;10.68;80.37;98817.09;7388803;19;20024;-72
2022/10/05 01:51:05;;;;;;;7.20;5.78;;;;;;;10.69;80.16;98821.41;7385444;19;20022;-70
2022/10/05 01:53:36;;;;;;;10.70;6.60;;;;;;;10.69;79.93;98814.31;7388305;19;20014;-72
2022/10/05 01:56:29;;;;;;;9.52;6.57;;;;;;;10.74;80.35;98806.78;7390655;19;20021;-72
2022/10/05 01:59:06;;;;;;;;;;;;;;;10.74;79.87;98801.50;7390253;19;20022;-71
2022/10/05 02:01:38;;;;;;;7.97;6.45;;;;;;;10.65;80.00;98804.16;7392006;19;19926;-72
2022/10/05 02:04:15;;;;;;;10.27;6.57;;;;;;;10.66;79.79;98789.94;7390625;19;20046;-72
2022/10/05 02:07:07;;;;;;;9.05;6.15;;;;;;;10.65;80.17;98796.22;7389327;19;20776;-71
2022/10/05 02:09:43;;;;;;;10.95;6.28;;;;;;;10.70;80.96;98791.34;7385776;19;20021;-72
2022/10/05 02:12:17;;;;;;;10.63;6.35;;;;;;;10.83;80.99;98799.78;7390739;19;20010;-71
2022/10/05 02:14:48;;;;;;;7.38;6.03;;;;;;;10.92;80.79;98793.56;7392867;19;20006;-72
2022/10/05 02:17:26;;;;;;;11.07;6.72;;;;;;;10.94;80.65;98796.91;7391122;19;20489;-72
2022/10/05 02:19:59;;;;;;;9.30;6.03;;;;;;;10.88;80.74;98791.41;7389851;19;20052;-70
2022/10/05 02:22:43;;;;;;;8.18;6.55;;;;;;;10.97;80.59;98790.50;7390722;19;20585;-71
2022/10/05 02:25:16;;;;;;;10.60;6.72;;;;;;;10.96;80.50;98787.03;7381343;19;20774;-72
2022/10/05 02:27:52;;;;;;;12.23;6.50;;;;;;;10.86;80.56;98780.13;7389465;19;20014;-72
2022/10/05 02:30:19;;;;;;;7.70;6.22;;;;;;;10.85;80.55;98775.78;7385469;19;20497;-73
2022/10/05 02:32:59;;;;;;;8.95;6.50;;;;;;;10.79;80.71;98779.84;7391863;19;20661;-73
2022/10/05 02:35:26;;;;;;;10.48;6.38;;;;;;;10.86;80.63;98780.13;7389221;19;20015;-72
2022/10/05 02:38:07;;;;;;;7.75;6.28;;;;;;;10.83;80.61;98775.94;7392675;19;20016;-72
2022/10/05 02:40:41;;;;;;;10.32;6.28;;;;;;;10.85;80.28;98763.41;7384307;19;20011;-72
2022/10/05 02:43:37;;;;;;;11.13;6.40;;;;;;;10.85;80.38;98766.06;7390305;19;20053;-72
2022/10/05 02:46:10;;;;;;;11.18;6.43;;;;;;;10.78;80.41;98767.63;7387658;19;20028;-69
2022/10/05 02:48:40;;;;;;;7.70;6.50;;;;;;;10.83;80.13;98765.38;7389494;19;20014;-72
2022/10/05 02:51:19;;;;;;;8.85;5.68;;;;;;;10.86;80.05;98770.34;7388863;19;20088;-73
2022/10/05 02:53:55;;;;;;;12.10;6.13;;;;;;;10.84;80.07;98776.78;7388471;19;20100;-71
2022/10/05 02:56:36;;;;;;;6.82;6.20;;;;;;;10.65;79.87;98783.00;7390120;19;20017;-72
2022/10/05 02:59:12;;;;;;;10.55;6.15;;;;;;;10.54;79.94;98787.50;7383766;19;20010;-71
2022/10/05 03:01:48;;;;;;;11.35;6.57;;;;;;;10.47;79.99;98794.34;7389024;19;20074;-70
2022/10/05 03:04:27;;;;;;;7.78;6.32;;;;;;;10.42;80.05;98793.09;7389087;19;20019;-71
2022/10/05 03:07:09;;;;;;;6.75;5.75;;;;;;;10.35;79.90;98800.81;7391545;19;20043;-72
2022/10/05 03:09:44;;;;;;;8.13;5.90;;;;;;;10.37;79.89;98803.28;7390478;19;20007;-72
2022/10/05 03:12:15;;;;;;;8.40;6.43;;;;;;;10.38;79.95;98797.03;7389006;19;20532;-71
2022/10/05 03:15:10;;;;;;;7.80;6.22;;;;;;;10.35;79.80;98792.00;7383253;19;20025;-72
2022/10/05 03:17:53;;;;;;;8.57;6.13;;;;;;;10.31;79.71;98788.81;7385197;19;20430;-72
2022/10/05 03:20:40;;;;;;;9.27;5.88;;;;;;;10.30;79.64;98789.81;7389194;19;20636;-71
2022/10/05 03:23:14;;;;;;;7.35;6.03;;;;;;;10.11;80.11;98793.31;7388668;19;20489;-71
2022/10/05 03:25:41;;;;;;;11.60;6.50;;;;;;;10.15;79.99;98785.91;7388842;19;20018;-71
2022/10/05 03:28:24;;;;;;;7.85;5.90;;;;;;;10.11;79.96;98785.38;7389041;19;20003;-71
2022/10/05 03:30:50;;;;;;;;;;;;;;;10.17;79.80;98781.34;7382817;19;20551;-71
2022/10/05 03:33:35;;;;;;;8.75;6.15;;;;;;;10.17;80.09;98773.41;7384471;19;19922;-72
2022/10/05 03:36:11;;;;;;;9.80;5.80;;;;;;;10.14;79.86;98774.53;7387870;19;20022;-72
2022/10/05 03:38:47;;;;;;;7.30;6.47;;;;;;;10.13;79.93;98762.25;7388666;19;20048;-72
2022/10/05 03:41:25;;;;;;;10.13;6.55;;;;;;;10.15;79.90;98759.47;7385256;19;20485;-73
2022/10/05 03:44:04;;;;;;;8.90;5.75;;;;;;;10.16;80.37;98755.84;7388193;19;20018;-70
2022/10/05 03:46:49;;;;;;;7.40;5.65;;;;;;;10.23;80.80;98752.50;7384184;19;20039;-72
2022/10/05 03:49:31;;;;;;;14.43;6.22;;;;;;;10.33;80.76;98760.44;7383359;19;20015;-72
2022/10/05 03:52:07;;;;;;;6.63;5.90;;;;;;;10.40;80.56;98747.44;7390193;19;20515;-69
2022/10/05 03:54:41;;;;;;;7.20;5.78;;;;;;;10.40;80.59;98745.66;7388512;19;20010;-72
2022/10/05 03:57:18;;;;;;;7.45;6.03;;;;;;;10.29;80.73;98751.09;7387870;19;20421;-72
2022/10/05 03:59:56;;;;;;;6.22;5.35;;;;;;;10.32;80.39;98737.59;7385073;19;20624;-72
2022/10/05 04:02:27;;;;;;;9.38;5.00;;;;;;;10.33;80.37;98740.09;7383581;19;23381;-72
2022/10/05 04:05:02;;;;;;;7.22;5.20;;;;;;;10.36;80.30;98732.88;7382129;19;20027;-72
2022/10/05 04:07:41;;;;;;;12.85;5.65;;;;;;;10.30;80.64;98729.00;7383846;19;20468;-71
2022/10/05 04:10:16;;;;;;;8.60;6.45;;;;;;;10.20;80.71;98747.50;7387509;19;20022;-72
2022/10/05 04:12:48;;;;;;;6.50;5.63;;;;;;;10.18;80.91;98736.22;7387681;19;20023;-72
2022/10/05 04:15:22;;;;;;;5.97;5.38;;;;;;;10.22;80.77;98734.16;7385995;19;20014;-69
2022/10/05 04:17:55;;;;;;;8.45;5.63;;;;;;;10.17;80.79;98742.50;7384781;19;20372;-71
2022/10/05 04:20:29;;;;;;;6.53;5.82;;;;;;;10.15;80.93;98733.88;7384874;19;20050;-72
2022/10/05 04:23:08;;;;;;;10.05;5.70;;;;;;;10.09;80.94;98740.56;7382168;19;20030;-72
2022/10/05 04:25:40;;;;;;;5.35;4.85;;;;;;;10.12;80.64;98742.09;7384947;19;20021;-72
2022/10/05 04:28:16;;;;;;;7.03;5.32;;;;;;;10.09;80.64;98743.22;7384901;19;20075;-69
2022/10/05 04:30:47;;;;;;;9.57;5.97;;;;;;;10.06;80.71;98737.41;7385372;19;20393;-72
2022/10/05 04:33:14;;;;;;;8.68;6.15;;;;;;;10.06;80.53;98727.66;7384671;19;21035;-72
2022/10/05 04:35:50;;;;;;;6.35;5.63;;;;;;;10.16;80.23;98738.16;7385510;19;20015;-72
2022/10/05 04:38:50;;;;;;;9.48;5.22;;;;;;;10.07;80.08;98739.88;7375689;19;20024;-72
2022/10/05 04:41:47;;;;;;;7.57;6.03;;;;;;;10.01;80.06;98740.47;7382206;19;20752;-69
2022/10/05 04:44:23;;;;;;;5.70;5.05;;;;;;;10.00;79.83;98737.94;7385155;19;20635;-71
2022/10/05 04:47:05;;;;;;;9.25;5.53;;;;;;;9.74;80.63;98738.56;7385294;19;20015;-72
2022/10/05 04:49:56;;;;;;;7.85;5.78;;;;;;;9.64;81.24;98735.13;7384538;19;20710;-71
2022/10/05 04:52:28;;;;;;;6.43;5.35;;;;;;;9.61;81.33;98736.22;7380739;19;20010;-69
2022/10/05 04:55:12;;;;;;;8.25;5.95;;;;;;;9.54;81.27;98745.69;7380061;19;20014;-70
2022/10/05 04:57:42;;;;;;;7.93;5.68;;;;;;;9.53;81.37;98741.38;7384856;19;20118;-72
2022/10/05 05:00:15;;;;;;;9.07;6.30;;;;;;;9.59;81.35;98751.38;7383574;19;20015;-72
2022/10/05 05:02:50;;;;;;;;;;;;;;;9.63;81.46;98757.19;7384411;19;20046;-71
2022/10/05 05:05:52;;;;;;;6.18;5.15;;;;;;;9.61;81.57;98767.94;7383564;19;19934;-72
2022/10/05 05:09:26;;;;;;;7.68;5.28;;;;;;;9.53;81.36;98767.78;7383861;19;20011;-71
2022/10/05 05:12:18;;;;;;;12.75;5.78;;;;;;;9.51;81.69;98776.81;7378257;19;20040;-71
2022/10/05 05:14:56;;;;;;;6.35;5.47;;;;;;;9.51;81.63;98777.66;7385484;19;20046;-70
2022/10/05 05:17:30;;;;;;;6.55;5.53;;;;;;;9.45;81.45;98778.19;7383527;19;20508;-70
2022/10/05 05:20:21;;;;;;;7.43;5.20;;;;;;;9.31;81.69;98779.44;7382814;19;20026;-70
2022/10/05 05:23:10;;;;;;;8.25;5.68;;;;;;;9.38;81.66;98780.56;7383628;19;20031;-71
2022/10/05 05:26:04;;;;;;;6.45;5.18;;;;;;;9.34;81.97;98783.59;7377444;19;20019;-70
2022/10/05 05:28:53;;;;;;;6.15;5.53;;;;;;;9.38;81.83;98775.28;7374524;19;20031;-71
2022/10/05 05:31:31;;;;;;;8.85;6.10;;;;;;;9.38;81.97;98782.38;7373388;19;20018;-71
2022/10/05 05:34:17;;;;;;;7.82;5.85;;;;;;;9.35;81.86;98788.78;7378919;19;20397;-72
2022/10/05 05:37:03;;;;;;;6.90;5.13;;;;;;;9.34;82.01;98786.25;7380666;19;20022;-70
2022/10/05 05:39:41;;;;;;;8.48;6.40;;;;;;;9.31;81.93;98790.00;7382153;19;20015;-70
2022/10/05 05:42:36;;;;;;;9.13;6.25;;;;;;;9.31;81.98;98784.72;7383298;19;20511;-70
2022/10/05 05:45:14;;;;;;;6.88;6.03;;;;;;;9.31;82.17;98791.81;7381186;19;20089;-71
2022/10/05 05:47:50;;;;;;;6.40;5.80;;;;;;;9.37;82.31;98791.25;7383368;19;20029;-71
2022/10/05 05:50:21;;;;;;;7.15;5.82;;;;;;;9.29;82.22;98804.31;7384925;19;20030;-71
2022/10/05 05:52:52;;;;;;;8.55;6.35;;;;;;;9.38;82.34;98799.06;7385696;19;20041;-70
2022/10/05 05:55:26;;;;;;;7.75;5.80;;;;;;;9.42;82.28;98800.44;7384614;19;20019;-70
2022/10/05 05:58:03;;;;;;;8.93;6.32;;;;;;;9.42;82.37;98802.25;7384815;19;20439;-70
2022/10/05 06:00:39;;;;;;;7.50;6.25;;;;;;;9.47;82.36;98801.84;7381007;19;20029;-71
2022/10/05 06:03:11;;;;;;;6.32;5.63;;;;;;;9.48;82.45;98806.13;7382004;19;20010;-72
2022/10/05 06:05:46;;;;;;;6.57;5.70;;;;;;;9.52;82.38;98815.47;7382992;19;20030;-70
2022/10/05 06:08:39;;;;;;;12.00;6.68;;;;;;;9.56;82.44;98808.94;7384014;19;20481;-71
2022/10/05 06:11:29;;;;;;;7.30;6.07;;;;;;;9.57;82.56;98814.06;7391722;19;20022;-70
2022/10/05 06:14:02;;;;;;;6.32;5.70;;;;;;;9.70;82.53;98824.38;7392673;19;20521;-72
2022/10/05 06:17:08;;;;;;;7.28;5.78;;;;;;;9.78;82.28;98828.97;7390546;19;20019;-71
2022/10/05 06:19:35;;;;;;;9.13;6.72;;;;;;;9.92;82.55;98825.03;7385754;19;20051;-70
2022/10/05 06:22:16;;;;;;;8.50;5.60;;;;;;;10.03;82.16;98836.31;7391470;19;20094;-71
2022/10/05 06:25:04;;;;;;;9.27;6.10;;;;;;;10.15;82.06;98838.81;7391439;19;20369;-71
2022/10/05 06:28:02;;;;;;;6.82;5.82;;;;;;;10.30;81.72;98840.06;7391580;19;20038;-70
2022/10/05 06:30:42;;;;;;;6.50;5.63;;;;;;;10.36;81.75;98846.59;7389598;19;20019;-71
2022/10/05 06:33:08;;;;;;;11.10;6.50;;;;;;;10.34;81.84;98857.28;7389879;19;20366;-70
2022/10/05 06:36:01;;;;;;;9.50;6.57;;;;;;;10.49;82.22;98847.09;7385945;19;20030;-71
2022/10/05 06:38:50;;;;;;;8.80;6.70;;;;;;;10.64;81.81;98858.09;7386856;19;20014;-71
2022/10/05 06:41:31;;;;;;;8.95;6.50;;;;;;;10.69;81.37;98853.16;7389491;19;20022;-72
2022/10/05 06:44:15;;;;;;;6.45;5.78;;;;;;;10.76;80.76;98856.91;7392154;19;20010;-70
2022/10/05 06:46:50;;;;;;;;;;;;;;;10.84;80.32;98853.53;7391024;19;20014;-71
2022/10/05 06:50:08;;;;;;;7.85;5.70;;;;;;;10.89;80.14;98860.06;7388018;19;19952;-71
2022/10/05 06:53:06;;;;;;;9.35;5.85;;;;;;;10.95;80.01;98859.50;7389121;19;20089;-71
2022/10/05 06:55:52;;;;;;;6.50;5.85;;;;;;;11.04;80.17;98860.41;7390243;19;20074;-71
2022/10/05 06:58:26;;;;;;;6.80;6.03;;;;;;;11.08;80.13;98858.28;7390102;19;20021;-70
2022/10/05 07:01:03;;;;;;;6.65;5.82;;;;;;;11.12;80.00;98857.88;7387887;19;20034;-71
2022/10/05 07:04:06;;;;;;;7.68;6.88;;;;;;;11.24;79.45;98869.06;7391211;19;20007;-71
2022/10/05 07:06:54;;;;;;;11.55;7.40;;;;;;;11.34;79.26;98861.91;7389328;19;20025;-70
2022/10/05 07:09:44;;;;;;;13.20;9.45;;;;;;;11.48;78.95;98865.91;7385328;19;20042;-71
2022/10/05 07:12:28;;;;;;;39.35;22.15;;;;;;;11.49;78.94;98866.72;7390442;19;20014;-70
2022/10/05 07:15:08;;;;;;;35.28;22.60;;;;;;;11.49;79.24;98869.38;7389790;19;20019;-70
2022/10/05 07:17:35;;;;;;;22.20;15.63;;;;;;;11.56;78.96;98873.09;7389715;19;20010;-70
2022/10/05 07:20:28;;;;;;;14.65;10.40;;;;;;;11.64;79.00;98871.34;7389073;19;20066;-70
2022/10/05 07:23:24;;;;;;;8.20;6.18;;;;;;;11.63;79.04;98868.84;7389485;19;20011;-70
2022/10/05 07:26:19;;;;;;;8.00;7.20;;;;;;;11.61;79.13;98870.81;7384401;19;20015;-71
2022/10/05 07:28:49;;;;;;;7.97;6.45;;;;;;;11.61;79.05;98870.81;7391877;19;20014;-70
2022/10/05 07:31:25;;;;;;;8.27;6.20;;;;;;;11.63;79.07;98861.72;7387805;19;20382;-72
2022/10/05 07:34:01;;;;;;;8.75;6.57;;;;;;;11.63;79.78;98863.53;7390003;19;20043;-70
2022/10/05 07:39:58;;;;;;;7.10;6.32;;;;;;;11.71;80.45;98866.28;7386814;19;20018;-73
2022/10/05 07:42:42;;;;;;;9.75;6.40;;;;;;;11.90;80.44;98862.69;7385346;19;20346;-71
2022/10/05 07:45:27;;;;;;;10.68;6.65;;;;;;;12.02;80.42;98863.28;7387697;19;20013;-71
2022/10/05 07:47:58;;;;;;;12.63;8.07;;;;;;;12.14;80.17;98867.38;7385766;19;20466;-71
2022/10/05 07:50:43;;;;;;;13.45;8.52;;;;;;;12.34;80.09;98872.47;7386877;19;20026;-71
2022/10/05 07:53:14;;;;;;;14.38;9.77;;;;;;;12.52;79.54;98874.09;7388272;19;20082;-72
2022/10/05 07:55:51;;;;;;;19.60;11.70;;;;;;;12.70;79.31;98873.22;7388803;19;20678;-71
2022/10/05 07:58:28;;;;;;;17.40;10.52;;;;;;;12.85;78.80;98884.06;7383555;19;20040;-72
2022/10/05 08:01:12;;;;;;;13.52;8.38;;;;;;;12.92;78.42;98882.47;7385065;19;20014;-71
2022/10/05 08:04:01;;;;;;;8.93;6.75;;;;;;;13.03;78.53;98879.50;7388000;19;20011;-71
2022/10/05 08:06:39;;;;;;;9.27;5.95;;;;;;;13.08;78.55;98877.22;7387469;19;20015;-71
2022/10/05 08:09:18;;;;;;;10.93;7.28;;;;;;;13.18;78.28;98877.94;7388285;19;20048;-71
2022/10/05 08:12:26;;;;;;;11.23;8.48;;;;;;;13.20;77.67;98876.97;7386521;19;20050;-71
2022/10/05 08:15:12;;;;;;;12.88;8.93;;;;;;;13.29;77.25;98886.63;7383654;19;20010;-70
2022/10/05 08:18:13;;;;;;;11.02;8.45;;;;;;;13.35;77.38;98880.69;7384653;19;20031;-71
2022/10/05 08:20:46;;;;;;;11.65;7.90;;;;;;;13.47;76.89;98875.91;7385498;19;20369;-72
2022/10/05 08:23:34;;;;;;;10.00;7.63;;;;;;;13.58;76.91;98873.75;7387843;19;20477;-71
2022/10/05 08:26:11;;;;;;;6.53;5.93;;;;;;;13.74;76.65;98880.13;7387087;19;20054;-72
2022/10/05 08:28:45;;;;;;;7.32;5.50;;;;;;;13.81;76.61;98879.31;7386022;19;20521;-72
2022/10/05 08:31:25;;;;;;;9.98;5.88;;;;;;;13.79;76.84;98878.63;7382520;19;20373;-72
2022/10/05 08:34:04;;;;;;;10.45;7.07;;;;;;;13.86;76.14;98883.31;7386430;19;20473;-72
2022/10/05 08:36:47;;;;;;;17.77;9.75;;;;;;;13.92;76.32;98864.84;7385368;19;20485;-71
2022/10/05 08:39:20;;;;;;;6.63;5.15;;;;;;;13.95;75.84;98874.31;7385729;19;20090;-71
2022/10/05 08:42:19;;;;;;;17.92;10.70;;;;;;;14.07;75.42;98878.34;7385724;19;20509;-71
2022/10/05 08:45:00;;;;;;;8.55;5.55;;;;;;;14.16;75.24;98868.50;7389017;19;20133;-72
2022/10/05 08:47:56;;;;;;;6.38;5.10;;;;;;;14.19;75.32;98871.69;7384154;19;20425;-71
2022/10/05 08:50:24;;;;;;;6.95;4.82;;;;;;;14.22;74.51;98858.06;7381687;19;20018;-71
2022/10/05 08:52:57;;;;;;;8.25;5.63;;;;;;;14.26;74.79;98859.38;7387317;19;20497;-72
2022/10/05 08:55:37;;;;;;;10.88;5.43;;;;;;;14.40;74.78;98863.19;7386843;19;20067;-70
2022/10/05 08:58:23;;;;;;;6.07;5.00;;;;;;;14.53;74.97;98865.34;7383757;19;20010;-73
2022/10/05 09:00:58;;;;;;;12.63;8.05;;;;;;;14.59;74.81;98859.38;7386753;19;20046;-72
2022/10/05 09:04:07;;;;;;;12.55;8.45;;;;;;;14.65;73.57;98860.53;7388027;19;20039;-72
2022/10/05 09:06:58;;;;;;;9.35;5.90;;;;;;;14.84;73.99;98854.78;7382224;19;20026;-71
2022/10/05 09:09:57;;;;;;;8.80;5.68;;;;;;;15.01;73.92;98858.25;7387141;19;20022;-71
2022/10/05 09:13:02;;;;;;;11.65;4.97;;;;;;;15.19;73.17;98855.31;7388555;19;20054;-71
2022/10/05 09:15:48;;;;;;;6.93;4.93;;;;;;;15.28;73.12;98851.63;7388135;19;20352;-71
2022/10/05 09:18:40;;;;;;;8.32;5.28;;;;;;;15.41;73.07;98844.91;7387136;19;20533;-72
2022/10/05 09:21:13;;;;;;;10.82;4.43;;;;;;;15.49;72.63;98842.19;7382459;19;20023;-71
2022/10/05 09:23:41;;;;;;;6.30;5.05;;;;;;;15.51;71.52;98841.03;7383772;19;20015;-71
2022/10/05 09:26:30;;;;;;;7.05;4.60;;;;;;;15.66;70.97;98843.75;7383844;19;20018;-72
2022/10/05 09:29:20;;;;;;;5.38;4.40;;;;;;;15.74;71.17;98841.03;7387178;19;20019;-71
2022/10/05 09:32:20;;;;;;;7.13;4.85;;;;;;;15.80;71.31;98836.88;7387153;19;20111;-71
2022/10/05 09:34:54;;;;;;;9.95;4.70;;;;;;;15.95;71.02;98839.56;7388214;19;20383;-71
2022/10/05 09:37:32;;;;;;;8.85;4.07;;;;;;;16.01;70.03;98833.53;7383677;19;20026;-72
2022/10/05 09:40:11;;;;;;;7.70;4.07;;;;;;;16.05;70.55;98834.00;7383734;19;20022;-71
2022/10/05 09:42:46;;;;;;;9.07;4.50;;;;;;;16.16;70.49;98831.72;7386468;19;20018;-71
2022/10/05 09:45:35;;;;;;;6.80;4.45;;;;;;;16.17;70.88;98822.72;7391907;19;20018;-71
2022/10/05 09:48:40;;;;;;;8.65;4.20;;;;;;;16.20;71.07;98821.53;7394862;19;20042;-74
2022/10/05 09:51:34;;;;;;;6.32;4.40;;;;;;;16.26;70.74;98817.31;7391402;19;20035;-73
2022/10/05 09:54:19;;;;;;;9.25;4.03;;;;;;;16.31;71.08;98814.91;7391576;19;20409;-73
2022/10/05 09:57:04;;;;;;;4.55;3.83;;;;;;;16.33;70.96;98812.91;7389833;19;20015;-71
2022/10/05 09:59:50;;;;;;;4.63;3.85;;;;;;;16.33;70.73;98810.22;7392947;19;20014;-72
2022/10/05 10:02:49;;;;;;;9.13;3.47;;;;;;;16.43;71.50;98816.16;7393965;19;20052;-73
2022/10/05 10:05:39;;;;;;;5.80;4.07;;;;;;;16.52;70.53;98807.03;7391789;19;20030;-72
2022/10/05 10:08:13;;;;;;;6.45;3.80;;;;;;;16.69;71.49;98810.31;7391484;19;20046;-72
2022/10/05 10:10:55;;;;;;;7.30;3.72;;;;;;;16.79;71.02;98802.06;7387623;19;20014;-71
2022/10/05 10:13:52;;;;;;;4.00;3.60;;;;;;;16.85;70.56;98795.97;7389212;19;20061;-72
2022/10/05 10:16:44;;;;;;;4.30;3.75;;;;;;;16.89;69.01;98795.44;7393688;19;20339;-71
2022/10/05 10:19:29;;;;;;;8.32;4.32;;;;;;;16.95;70.26;98790.34;7393186;19;20019;-71
2022/10/05 10:22:09;;;;;;;4.85;3.63;;;;;;;17.06;69.74;98788.06;7393217;19;20018;-73
2022/10/05 10:25:18;;;;;;;10.70;4.75;;;;;;;17.05;70.48;98783.69;7392317;19;20047;-72
2022/10/05 10:27:53;;;;;;;4.75;3.55;;;;;;;17.16;70.18;98782.38;7389829;19;20039;-71
2022/10/05 10:30:51;;;;;;;4.90;3.65;;;;;;;17.24;69.96;98781.44;7387386;19;20378;-72
2022/10/05 10:33:34;;;;;;;5.55;4.00;;;;;;;17.22;70.39;98780.81;7393328;19;20022;-72
2022/10/05 10:36:07;;;;;;;3.45;3.15;;;;;;;17.33;70.52;98775.81;7391653;19;20032;-71
2022/10/05 10:38:33;;;;;;;;;;;;;;;17.42;70.70;98775.69;7392786;19;20423;-71
2022/10/05 10:41:21;;;;;;;7.85;3.85;;;;;;;17.56;70.30;98772.13;7390582;19;19953;-72
2022/10/05 10:44:25;;;;;;;5.05;3.10;;;;;;;17.58;69.04;98774.59;7388928;19;20018;-70
2022/10/05 10:47:26;;;;;;;5.00;2.97;;;;;;;17.76;68.14;98770.47;7386591;19;20485;-71
2022/10/05 10:50:23;;;;;;;6.45;3.05;;;;;;;18.05;68.69;98766.00;7391510;19;20046;-72
2022/10/05 10:53:17;;;;;;;2.72;2.53;;;;;;;18.20;67.47;98763.25;7392436;19;20019;-72
2022/10/05 10:56:01;;;;;;;5.57;2.95;;;;;;;18.24;68.50;98764.47;7391727;19;20023;-71
2022/10/05 10:58:52;;;;;;;5.68;2.85;;;;;;;18.33;67.20;98755.28;7389861;19;20039;-71
2022/10/05 11:01:29;;;;;;;5.85;3.15;;;;;;;18.46;66.70;98759.06;7385466;19;20014;-71
2022/10/05 11:04:08;;;;;;;3.85;3.10;;;;;;;18.56;66.68;98746.13;7388129;19;20035;-72
2022/10/05 11:07:09;;;;;;;2.67;2.47;;;;;;;18.60;66.56;98740.19;7390926;19;20022;-71
2022/10/05 11:10:08;;;;;;;3.05;2.55;;;;;;;18.71;66.33;98728.06;7390111;19;20026;-72
2022/10/05 11:13:09;;;;;;;3.88;2.58;;;;;;;18.77;67.06;98732.69;7391285;19;20088;-73
2022/10/05 11:16:02;;;;;;;3.83;2.50;;;;;;;18.79;66.04;98730.59;7392443;19;20037;-72
2022/10/05 11:19:02;;;;;;;2.88;2.28;;;;;;;18.90;66.84;98720.34;7386761;19;20366;-72
2022/10/05 11:21:35;;;;;;;5.03;3.03;;;;;;;18.93;66.28;98719.94;7385765;19;20719;-71
2022/10/05 11:24:17;;;;;;;3.10;2.47;;;;;;;19.05;66.12;98708.44;7390477;19;20038;-71
2022/10/05 11:26:49;;;;;;;2.45;2.25;;;;;;;19.14;66.28;98716.28;7387288;19;20034;-72
2022/10/05 11:29:37;;;;;;;4.30;2.60;;;;;;;19.22;66.05;98703.53;7390345;19;20022;-72
2022/10/05 11:32:31;;;;;;;4.60;2.33;;;;;;;19.19;66.24;98695.88;7391381;19;20035;-74
2022/10/05 11:35:27;;;;;;;2.92;2.45;;;;;;;19.17;65.69;98697.97;7384166;19;20018;-72
2022/10/05 11:38:26;;;;;;;5.68;2.00;;;;;;;19.25;65.04;98703.13;7384406;19;20018;-73
2022/10/05 11:41:21;;;;;;;6.25;1.95;;;;;;;19.40;65.67;98686.00;7387784;19;20021;-72
2022/10/05 11:44:03;;;;;;;3.05;1.88;;;;;;;19.49;64.56;98690.16;7389011;19;20493;-72
2022/10/05 11:46:58;;;;;;;2.15;1.75;;;;;;;19.59;64.15;98684.38;7391448;19;20022;-72
2022/10/05 11:49:48;;;;;;;4.75;2.22;;;;;;;19.71;64.28;98686.25;7392179;19;20018;-73
2022/10/05 11:52:24;;;;;;;3.22;2.20;;;;;;;19.75;64.85;98684.00;7384803;19;20046;-71
2022/10/05 11:55:02;;;;;;;3.20;2.28;;;;;;;19.76;64.70;98682.97;7386910;19;20470;-71
2022/10/05 11:57:50;;;;;;;3.75;2.22;;;;;;;19.79;64.59;98676.34;7383457;19;20481;-72
2022/10/05 12:00:19;;;;;;;2.63;2.17;;;;;;;19.83;64.66;98678.41;7383543;19;20010;-72
2022/10/05 12:03:02;;;;;;;6.18;2.08;;;;;;;20.01;65.13;98675.09;7388643;19;20661;-71
2022/10/05 12:05:51;;;;;;;3.88;1.98;;;;;;;20.06;63.93;98675.28;7388439;19;20025;-73
2022/10/05 12:08:52;;;;;;;3.50;2.47;;;;;;;20.12;63.47;98665.56;7382036;19;20028;-71
2022/10/05 12:11:45;;;;;;;2.97;1.92;;;;;;;20.34;64.32;98669.63;7386752;19;20048;-72
2022/10/05 12:14:21;;;;;;;6.22;2.33;;;;;;;20.36;63.34;98664.06;7387596;19;20075;-71
2022/10/05 12:17:01;;;;;;;5.78;2.00;;;;;;;20.46;63.75;98656.38;7387685;19;20022;-71
2022/10/05 12:19:35;;;;;;;2.88;2.08;;;;;;;20.52;65.16;98662.75;7386913;19;20021;-73
2022/10/05 12:22:15;;;;;;;3.15;2.40;;;;;;;20.66;63.96;98658.19;7387202;19;20021;-73
2022/10/05 12:24:45;;;;;;;2.75;2.10;;;;;;;20.87;64.13;98657.03;7385143;19;20015;-71
2022/10/05 12:27:19;;;;;;;4.30;2.28;;;;;;;20.92;63.11;98658.03;7382743;19;20018;-73
2022/10/05 12:29:52;;;;;;;3.25;2.13;;;;;;;20.97;62.51;98649.34;7385268;19;20429;-72
2022/10/05 12:32:29;;;;;;;4.53;2.30;;;;;;;20.94;62.95;98653.28;7387903;19;20022;-72
2022/10/05 12:34:58;;;;;;;5.28;1.67;;;;;;;20.97;61.19;98635.88;7390229;19;20019;-70
2022/10/05 12:37:47;;;;;;;4.72;1.88;;;;;;;21.09;61.21;98650.31;7388557;19;20795;-71
2022/10/05 12:40:23;;;;;;;2.13;1.77;;;;;;;21.27;63.21;98646.84;7386951;19;20018;-73
2022/10/05 12:42:55;;;;;;;6.55;1.80;;;;;;;21.28;61.67;98645.81;7383177;19;20015;-72
2022/10/05 12:45:42;;;;;;;3.35;1.85;;;;;;;21.46;61.50;98635.16;7388314;19;20033;-71
2022/10/05 12:48:15;;;;;;;3.42;1.85;;;;;;;21.55;61.50;98637.56;7388740;19;20032;-71